Ponsford, Minnesota
Current Conditions -  °F | °C
As of 5:53 PM on Thursday 18 Dec 2014 (Local Time) from KPKD Reporting Station
Broken Clouds Broken Clouds  
Wind Chill:   Ceiling: 7500
Heat Index: 17°   Visibility: 10mi
Dew Point: 13°   Wind: 6mph
Humidity: 84%   Direction: 140°SE
Pressure: 30.18"   Gusts: NA
Location:  46.97°N, 95.38°W
Report Text: KPKD 182353Z AUTO 14005KT 10SM BKN075 M08/M11 A3018 RMK AO2 SLP254 T10831106 11072 21083 58004
Loading
Personal Weather Stations






























Interactive Weather Map New forecast layout! Learn more

10-Day Weather Forecast

Advertisements
Track Severe Weather on mobile